Time;durP1;ratioP1;P1;durP2;ratioP2;P2;SDS_P1;SDS_P2;PMS_P1;PMS_P2;Temp;Humidity;BMP_temperature;BMP_pressure;BME280_temperature;BME280_humidity;BME280_pressure;Samples;Min_cycle;Max_cycle;Signal;HPM_P1;HPM_P2
2022/02/06 00:00:50;;;;;;;2.55;1.23;;;8.60;99.90;;;;;;4905790;29;20532;-87
2022/02/06 00:03:16;;;;;;;4.07;1.73;;;7.30;99.90;;;;;;4908394;29;20294;-88
2022/02/06 00:05:43;;;;;;;2.05;1.63;;;6.20;99.90;;;;;;4897155;29;20303;-88
2022/02/06 00:08:11;;;;;;;1.83;1.75;;;7.70;99.90;;;;;;4896030;29;20250;-86
2022/02/06 00:10:38;;;;;;;5.00;2.17;;;6.40;99.90;;;;;;4886278;29;20327;-87
2022/02/06 00:13:04;;;;;;;6.55;1.98;;;5.90;99.90;;;;;;4903142;29;20195;-85
2022/02/06 00:15:30;;;;;;;2.13;2.00;;;6.40;99.90;;;;;;4882160;29;20189;-86
2022/02/06 00:17:55;;;;;;;3.20;2.70;;;6.50;99.90;;;;;;4886174;29;20274;-86
2022/02/06 00:20:24;;;;;;;1.83;1.73;;;;;;;;;;4885179;29;20212;-85
2022/02/06 00:22:54;;;;;;;3.22;1.48;;;6.50;99.90;;;;;;4877797;29;20489;-85
2022/02/06 00:30:29;;;;;;;1.67;1.58;;;6.30;99.90;;;;;;4901362;29;20247;-85
2022/02/06 00:40:43;;;;;;;3.03;1.67;;;6.50;99.90;;;;;;4901674;29;20190;-85
2022/02/06 00:43:09;;;;;;;3.10;1.80;;;7.90;99.90;;;;;;4897245;29;20301;-85
2022/02/06 00:45:35;;;;;;;5.30;1.80;;;;;;;;;;4907905;29;20287;-85
2022/02/06 00:48:01;;;;;;;5.17;2.00;;;6.60;99.90;;;;;;4909926;29;20259;-85
2022/02/06 00:50:27;;;;;;;3.57;1.47;;;6.20;99.90;;;;;;4891506;29;20464;-85
2022/02/06 00:53:02;;;;;;;2.95;1.45;;;6.50;99.90;;;;;;4911132;29;20567;-85
2022/02/06 00:55:28;;;;;;;4.35;1.58;;;6.60;99.90;;;;;;4894955;29;20254;-85
2022/02/06 00:57:54;;;;;;;6.13;1.40;;;6.60;99.90;;;;;;4897864;29;20197;-84
2022/02/06 01:00:20;;;;;;;6.00;1.80;;;6.50;99.90;;;;;;4898838;29;20698;-85
2022/02/06 01:02:45;;;;;;;2.28;2.10;;;6.70;99.90;;;;;;4907607;29;20599;-85
2022/02/06 01:05:11;;;;;;;4.13;2.00;;;6.80;99.90;;;;;;4911815;29;20733;-85
2022/02/06 01:07:37;;;;;;;3.03;1.53;;;6.50;99.90;;;;;;4876686;29;20201;-85
2022/02/06 01:10:03;;;;;;;1.43;1.10;;;6.70;99.90;;;;;;4896525;29;20220;-85
2022/02/06 01:12:32;;;;;;;1.83;1.73;;;6.90;99.90;;;;;;4885464;29;20206;-85
2022/02/06 01:17:32;;;;;;;7.93;1.65;;;7.80;99.90;;;;;;4904520;29;20199;-84
2022/02/06 01:20:04;;;;;;;4.13;1.75;;;6.60;99.90;;;;;;4887099;29;20586;-85
2022/02/06 01:22:32;;;;;;;1.98;1.58;;;8.90;99.90;;;;;;4886866;29;20196;-84
2022/02/06 01:25:09;;;;;;;1.83;1.73;;;7.00;99.90;;;;;;4896082;29;20206;-85
2022/02/06 01:27:59;;;;;;;1.85;1.50;;;8.60;99.90;;;;;;4892978;29;20200;-84
2022/02/06 01:30:44;;;;;;;2.20;2.10;;;6.80;99.90;;;;;;4909742;29;20221;-85
2022/02/06 01:33:15;;;;;;;4.53;1.88;;;7.00;99.90;;;;;;4909771;29;20203;-84
2022/02/06 01:36:36;;;;;;;1.20;1.20;;;7.10;99.90;;;;;;4889602;29;20211;-84
2022/02/06 01:38:33;;;;;;;2.88;2.30;;;7.10;99.90;;;;;;4906937;29;20207;-85
2022/02/06 01:41:08;;;;;;;7.00;2.20;;;7.10;99.90;;;;;;4896745;29;20246;-87
2022/02/06 01:43:43;;;;;;;1.60;1.50;;;9.20;99.90;;;;;;4888493;29;20307;-86
2022/02/06 02:02:49;;;;;;;2.17;2.00;;;9.90;99.90;;;;;;4905516;29;20218;-86
2022/02/06 02:48:05;;;;;;;6.03;2.13;;;6.80;99.90;;;;;;4948716;28;20194;-85
2022/02/06 02:50:35;;;;;;;3.53;3.10;;;6.80;99.90;;;;;;4929521;29;20914;-86
2022/02/06 02:53:13;;;;;;;2.70;2.47;;;6.80;99.90;;;;;;4940558;28;20238;-85
2022/02/06 03:03:38;;;;;;;2.67;2.47;;;7.40;99.90;;;;;;4933847;29;20245;-85
2022/02/06 03:06:06;;;;;;;1.88;1.77;;;6.20;99.90;;;;;;4938669;28;20186;-85
2022/02/06 03:08:34;;;;;;;4.05;2.10;;;8.40;99.90;;;;;;4946506;28;20668;-86
2022/02/06 03:11:04;;;;;;;4.22;2.22;;;6.80;99.90;;;;;;4924106;29;20187;-86
2022/02/06 03:18:46;;;;;;;3.38;2.33;;;6.70;99.90;;;;;;4942389;28;20255;-86
2022/02/06 03:21:18;;;;;;;2.05;1.95;;;6.70;99.90;;;;;;4927315;29;20191;-86
2022/02/06 03:23:51;;;;;;;4.00;2.63;;;6.70;99.90;;;;;;4925440;29;20203;-86
2022/02/06 03:26:21;;;;;;;9.65;3.30;;;8.60;99.90;;;;;;4932031;28;20237;-86
2022/02/06 03:28:47;;;;;;;7.10;2.03;;;6.80;99.90;;;;;;4929412;29;20199;-85
2022/02/06 03:31:13;;;;;;;2.78;2.67;;;6.70;99.90;;;;;;4923082;29;20191;-86
2022/02/06 03:33:38;;;;;;;5.37;1.80;;;5.90;99.90;;;;;;4922841;29;20735;-86
2022/02/06 03:36:04;;;;;;;1.40;1.40;;;6.60;99.90;;;;;;4929530;29;20545;-86
2022/02/06 03:38:30;;;;;;;2.45;2.35;;;6.80;99.90;;;;;;4910389;29;20226;-86
2022/02/06 03:41:03;;;;;;;5.87;3.83;;;7.90;99.90;;;;;;4927327;29;20279;-85
2022/02/06 03:44:07;;;;;;;1.40;1.40;;;6.70;99.90;;;;;;4905355;29;20290;-85
2022/02/06 03:46:29;;;;;;;7.72;2.00;;;6.80;99.90;;;;;;4915585;29;20215;-85
2022/02/06 03:49:06;;;;;;;6.05;2.75;;;6.80;99.90;;;;;;4923074;29;20218;-86
2022/02/06 03:51:34;;;;;;;8.32;1.83;;;6.70;99.90;;;;;;4912198;29;20214;-86
2022/02/06 03:54:01;;;;;;;1.77;1.63;;;6.70;99.90;;;;;;4909835;29;20214;-86
2022/02/06 03:56:28;;;;;;;4.45;2.80;;;6.30;99.90;;;;;;4926743;29;20203;-85
2022/02/06 03:58:55;;;;;;;5.88;2.88;;;6.70;99.90;;;;;;4926941;29;20206;-86
2022/02/06 04:01:21;;;;;;;7.82;3.00;;;6.70;99.90;;;;;;4896245;29;20561;-86
2022/02/06 04:03:46;;;;;;;6.37;2.70;;;6.80;99.90;;;;;;4909397;29;20206;-86
2022/02/06 04:06:12;;;;;;;2.93;2.73;;;6.80;99.90;;;;;;4903438;29;20187;-86
2022/02/06 04:08:39;;;;;;;3.30;1.50;;;6.70;99.90;;;;;;4909868;29;20701;-86
2022/02/06 04:11:10;;;;;;;1.42;1.42;;;7.00;99.90;;;;;;4920193;29;20183;-87
2022/02/06 04:13:41;;;;;;;2.72;2.53;;;6.80;99.90;;;;;;4923421;29;21324;-86
2022/02/06 04:16:13;;;;;;;5.13;2.83;;;7.90;99.90;;;;;;4901457;29;20219;-86
2022/02/06 04:18:51;;;;;;;5.45;2.35;;;8.60;99.90;;;;;;4897330;29;20241;-86
2022/02/06 04:21:16;;;;;;;4.88;2.75;;;6.80;99.90;;;;;;4898941;29;20187;-86
2022/02/06 04:23:54;;;;;;;4.10;1.87;;;6.30;99.90;;;;;;4903735;29;20259;-87
2022/02/06 04:26:19;;;;;;;3.10;2.75;;;9.70;99.90;;;;;;4905489;29;20227;-85
2022/02/06 04:28:45;;;;;;;2.07;1.43;;;6.70;99.90;;;;;;4926089;29;20211;-85
2022/02/06 04:31:11;;;;;;;2.33;2.30;;;6.60;99.90;;;;;;4928441;29;20179;-85
2022/02/06 04:33:36;;;;;;;5.37;1.70;;;6.70;99.90;;;;;;4909428;29;20254;-84
2022/02/06 04:36:04;;;;;;;7.23;3.20;;;6.50;99.90;;;;;;4928510;29;20581;-85
2022/02/06 04:38:48;;;;;;;4.20;2.83;;;6.80;99.90;;;;;;4923202;29;20199;-85
2022/02/06 04:41:29;;;;;;;6.75;3.22;;;6.10;99.90;;;;;;4924266;29;20220;-84
2022/02/06 05:16:18;;;;;;;3.55;1.95;;;6.70;99.90;;;;;;4915437;29;20242;-85
2022/02/06 05:23:45;;;;;;;4.63;2.47;;;6.80;99.90;;;;;;4926021;29;20210;-85
2022/02/06 05:29:28;;;;;;;3.47;2.20;;;6.90;99.90;;;;;;4912433;29;20273;-85
2022/02/06 05:32:01;;;;;;;5.55;1.83;;;7.20;99.90;;;;;;4913350;29;20203;-86
2022/02/06 05:34:26;;;;;;;4.47;2.75;;;6.90;99.90;;;;;;4929605;29;20215;-84
2022/02/06 05:36:52;;;;;;;4.60;1.70;;;6.90;99.90;;;;;;4923298;29;20752;-86
2022/02/06 05:39:18;;;;;;;4.00;3.63;;;6.70;99.90;;;;;;4929439;29;20274;-85
2022/02/06 05:41:43;;;;;;;2.83;2.27;;;6.90;99.90;;;;;;4905888;29;20710;-85
2022/02/06 05:44:09;;;;;;;2.00;2.00;;;6.90;99.90;;;;;;4929573;29;20561;-86
2022/02/06 05:46:34;;;;;;;3.80;1.57;;;6.50;99.90;;;;;;4897524;29;20587;-86
2022/02/06 05:49:00;;;;;;;3.33;2.47;;;6.80;99.90;;;;;;4911747;29;20273;-86
2022/02/06 05:51:28;;;;;;;3.57;2.90;;;6.90;99.90;;;;;;4897040;29;20258;-86
2022/02/06 05:53:54;;;;;;;8.30;3.28;;;7.30;99.90;;;;;;4912260;29;20191;-85
2022/02/06 05:56:20;;;;;;;3.90;2.90;;;6.90;99.90;;;;;;4913220;29;20359;-86
2022/02/06 05:58:46;;;;;;;2.90;2.70;;;6.80;99.90;;;;;;4928794;29;20210;-85
2022/02/06 06:01:11;;;;;;;3.20;1.83;;;6.90;99.90;;;;;;4906056;29;20784;-85
2022/02/06 06:03:37;;;;;;;3.67;3.37;;;7.30;99.90;;;;;;4928408;29;20213;-85
2022/02/06 06:06:03;;;;;;;6.67;3.50;;;7.00;99.90;;;;;;4930489;29;20191;-84
2022/02/06 06:08:29;;;;;;;2.83;2.63;;;7.00;99.90;;;;;;4911782;29;20459;-85
2022/02/06 06:10:55;;;;;;;2.83;2.57;;;7.10;99.90;;;;;;4930340;29;20584;-88
2022/02/06 06:13:20;;;;;;;2.40;2.20;;;7.00;99.90;;;;;;4911754;29;20449;-85
2022/02/06 06:15:46;;;;;;;4.13;2.63;;;7.30;99.90;;;;;;4914242;29;20184;-84
2022/02/06 06:18:13;;;;;;;2.60;2.40;;;7.00;99.90;;;;;;4912048;29;20259;-85
2022/02/06 06:20:40;;;;;;;4.60;2.30;;;6.40;99.90;;;;;;4912010;29;20242;-85
2022/02/06 06:23:06;;;;;;;3.63;1.60;;;6.50;99.90;;;;;;4927179;29;20262;-86
2022/02/06 06:25:40;;;;;;;5.80;2.07;;;7.00;99.90;;;;;;4903194;29;20188;-85
2022/02/06 06:28:06;;;;;;;3.22;2.15;;;7.00;99.90;;;;;;4919345;29;20179;-85
2022/02/06 06:30:35;;;;;;;2.70;2.67;;;6.50;99.90;;;;;;4930373;29;20513;-85
2022/02/06 06:33:01;;;;;;;3.35;3.10;;;7.20;99.90;;;;;;4904425;29;20242;-86
2022/02/06 06:35:27;;;;;;;5.22;2.50;;;7.00;99.90;;;;;;4913631;29;20179;-85
2022/02/06 06:37:53;;;;;;;1.58;1.58;;;6.40;99.90;;;;;;4930512;29;20223;-86
2022/02/06 06:40:19;;;;;;;2.30;2.20;;;7.10;99.90;;;;;;4927709;29;20219;-85
2022/02/06 06:42:45;;;;;;;4.03;1.40;;;6.50;99.90;;;;;;4907566;29;20192;-85
2022/02/06 06:45:10;;;;;;;2.70;1.83;;;7.10;99.90;;;;;;4908391;29;20705;-86
2022/02/06 06:47:36;;;;;;;4.33;2.33;;;7.00;99.90;;;;;;4915304;29;20183;-86
2022/02/06 06:50:04;;;;;;;4.90;1.47;;;9.30;99.90;;;;;;4899477;29;20226;-84
2022/02/06 06:52:30;;;;;;;2.20;2.20;;;7.10;99.90;;;;;;4929897;29;20176;-85
2022/02/06 06:55:03;;;;;;;5.00;1.37;;;7.10;99.90;;;;;;4905618;29;20258;-86
2022/02/06 06:57:37;;;;;;;4.32;2.58;;;6.60;99.90;;;;;;4905933;29;20938;-86
2022/02/06 07:02:53;;;;;;;1.77;1.70;;;7.10;99.90;;;;;;4926648;29;20686;-86
2022/02/06 07:05:27;;;;;;;3.10;2.78;;;6.20;99.90;;;;;;4914799;29;20551;-86
2022/02/06 07:07:56;;;;;;;5.13;3.72;;;7.40;99.90;;;;;;4907674;29;20237;-85
2022/02/06 07:10:29;;;;;;;2.60;2.42;;;6.00;99.90;;;;;;4926626;29;20242;-84
2022/02/06 07:12:54;;;;;;;2.95;2.67;;;6.90;99.90;;;;;;4900912;29;20504;-85
2022/02/06 07:15:25;;;;;;;2.20;1.17;;;7.10;99.90;;;;;;4911013;29;20701;-86
2022/02/06 07:17:51;;;;;;;3.78;3.42;;;7.30;99.90;;;;;;4904593;29;20194;-85
2022/02/06 07:20:16;;;;;;;1.83;1.73;;;7.20;99.90;;;;;;4903819;29;20611;-88
2022/02/06 07:22:44;;;;;;;2.63;1.87;;;7.20;99.90;;;;;;4920875;29;20303;-85
2022/02/06 07:25:10;;;;;;;1.90;1.70;;;7.10;99.90;;;;;;4919551;29;20195;-85
2022/02/06 07:27:39;;;;;;;2.80;2.60;;;7.10;99.90;;;;;;4909691;29;20270;-83
2022/02/06 07:30:07;;;;;;;4.82;3.40;;;7.30;99.90;;;;;;4902346;29;20887;-84
2022/02/06 07:32:38;;;;;;;2.15;2.05;;;7.30;99.90;;;;;;4577748;29;10000198;-85
2022/02/06 07:35:05;;;;;;;2.55;2.45;;;7.30;99.90;;;;;;4917862;29;20237;-79
2022/02/06 07:37:31;;;;;;;2.10;2.10;;;7.20;99.90;;;;;;4914218;29;20653;-84
2022/02/06 07:39:56;;;;;;;3.80;2.30;;;7.20;99.90;;;;;;4917522;29;20231;-85
2022/02/06 07:42:22;;;;;;;2.70;2.50;;;7.30;99.90;;;;;;4916872;29;20768;-85
2022/02/06 07:44:49;;;;;;;2.33;2.33;;;7.20;99.90;;;;;;4919321;29;20266;-85
2022/02/06 07:47:20;;;;;;;2.10;2.00;;;6.70;99.90;;;;;;4913329;29;20199;-85
2022/02/06 07:49:49;;;;;;;1.70;1.60;;;7.20;99.90;;;;;;4912022;29;20223;-85
2022/02/06 07:52:17;;;;;;;2.90;2.42;;;6.40;99.90;;;;;;4913238;29;20227;-85
2022/02/06 07:54:43;;;;;;;2.80;2.60;;;7.20;99.90;;;;;;4914582;29;20286;-85
2022/02/06 07:57:09;;;;;;;1.73;1.73;;;8.80;99.90;;;;;;4911018;29;20215;-85
2022/02/06 07:59:36;;;;;;;6.50;2.35;;;7.20;99.90;;;;;;4918871;29;20201;-84
2022/02/06 08:02:02;;;;;;;1.73;1.73;;;7.20;99.90;;;;;;4916464;29;20199;-85
2022/02/06 08:04:28;;;;;;;2.47;1.60;;;7.30;99.90;;;;;;4917578;29;20600;-85
2022/02/06 08:06:54;;;;;;;1.60;1.48;;;7.20;99.90;;;;;;4915129;29;20199;-86
2022/02/06 08:09:32;;;;;;;2.67;2.10;;;7.10;99.90;;;;;;4903997;29;20381;-86
2022/02/06 08:11:58;;;;;;;2.00;1.90;;;7.10;99.90;;;;;;4917157;29;20820;-86
2022/02/06 08:17:08;;;;;;;1.95;1.77;;;7.20;99.90;;;;;;4919397;29;20194;-85
2022/02/06 08:19:34;;;;;;;3.85;1.55;;;7.20;99.90;;;;;;4916776;29;20671;-85
2022/02/06 08:22:00;;;;;;;1.73;0.93;;;7.20;99.90;;;;;;4918486;29;20199;-86
2022/02/06 08:24:26;;;;;;;4.27;1.40;;;7.20;99.90;;;;;;4900381;29;20446;-84
2022/02/06 08:26:51;;;;;;;0.80;0.80;;;7.30;99.90;;;;;;4914262;29;20195;-84
2022/02/06 08:29:18;;;;;;;2.47;1.17;;;7.30;99.90;;;;;;4919837;29;20673;-84
2022/02/06 08:31:44;;;;;;;0.98;0.98;;;7.30;99.90;;;;;;4924526;29;20195;-84
2022/02/06 08:34:09;;;;;;;0.80;0.80;;;7.30;99.90;;;;;;4909499;29;20484;-84
2022/02/06 08:36:35;;;;;;;8.43;1.70;;;7.30;99.90;;;;;;4907439;29;20668;-84
2022/02/06 08:39:01;;;;;;;1.43;1.33;;;7.40;99.90;;;;;;4920577;29;20218;-85
2022/02/06 08:41:26;;;;;;;2.30;1.20;;;7.10;99.90;;;;;;4908202;29;20748;-83
2022/02/06 08:43:52;;;;;;;0.63;0.63;;;7.20;99.90;;;;;;4904092;29;20579;-85
2022/02/06 08:46:18;;;;;;;0.55;0.55;;;7.20;99.90;;;;;;4907107;29;20221;-85
2022/02/06 08:48:44;;;;;;;0.98;0.98;;;7.40;99.90;;;;;;4918251;29;20262;-86
2022/02/06 08:51:10;;;;;;;1.00;1.00;;;7.00;99.90;;;;;;4916611;29;20693;-85
2022/02/06 08:53:36;;;;;;;2.10;1.20;;;6.80;99.90;;;;;;4923459;29;20199;-87
2022/02/06 08:56:02;;;;;;;1.13;1.13;;;;;;;;;;4923116;29;20431;-86
2022/02/06 08:58:28;;;;;;;1.23;1.13;;;7.40;99.90;;;;;;4915700;29;20688;-86
2022/02/06 09:00:53;;;;;;;1.30;1.30;;;5.90;99.90;;;;;;4892547;29;20191;-85
2022/02/06 09:03:20;;;;;;;1.10;1.03;;;6.80;99.90;;;;;;4914612;29;20188;-86
2022/02/06 09:05:46;;;;;;;0.60;0.60;;;7.30;99.90;;;;;;4903216;29;20709;-87
2022/02/06 09:08:12;;;;;;;0.87;0.83;;;7.40;99.90;;;;;;4907616;29;20437;-86
2022/02/06 09:10:37;;;;;;;0.80;0.80;;;7.50;99.90;;;;;;4923521;29;20485;-86
2022/02/06 09:13:04;;;;;;;1.00;0.80;;;7.90;99.90;;;;;;4899715;29;20198;-86
2022/02/06 09:15:30;;;;;;;1.95;0.85;;;7.50;99.90;;;;;;4911216;29;20179;-87
2022/02/06 09:17:58;;;;;;;1.20;1.10;;;7.60;99.90;;;;;;4910068;29;20184;-86
2022/02/06 09:20:24;;;;;;;0.98;0.98;;;7.00;99.90;;;;;;4925278;29;20271;-86
2022/02/06 09:22:50;;;;;;;0.80;0.80;;;7.60;99.90;;;;;;4921877;29;20267;-86
2022/02/06 09:25:17;;;;;;;0.73;0.73;;;7.70;99.90;;;;;;4906795;29;20209;-81
2022/02/06 09:27:44;;;;;;;1.17;1.05;;;7.10;99.90;;;;;;4930167;29;20273;-86
2022/02/06 09:30:17;;;;;;;2.15;0.95;;;7.60;99.90;;;;;;4927560;29;20729;-86
2022/02/06 09:35:20;;;;;;;1.02;1.02;;;7.60;99.90;;;;;;4926280;29;20238;-86
2022/02/06 09:37:46;;;;;;;0.65;0.65;;;7.70;99.90;;;;;;4912961;29;20319;-84
2022/02/06 09:40:15;;;;;;;0.50;0.50;;;7.60;99.90;;;;;;4897052;29;20295;-85
2022/02/06 09:42:49;;;;;;;1.30;1.30;;;7.60;99.90;;;;;;4928005;29;20187;-86
2022/02/06 09:45:15;;;;;;;1.13;0.82;;;7.60;99.90;;;;;;4916654;29;20459;-82
2022/02/06 09:47:43;;;;;;;0.40;0.40;;;7.70;99.90;;;;;;4920212;29;20199;-87
2022/02/06 09:50:09;;;;;;;0.55;0.55;;;7.70;99.90;;;;;;4895934;29;20215;-85
2022/02/06 09:52:38;;;;;;;0.80;0.80;;;7.60;99.90;;;;;;4901517;29;20708;-78
2022/02/06 09:55:15;;;;;;;2.05;1.10;;;7.20;99.90;;;;;;4912111;29;20728;-85
2022/02/06 10:00:20;;;;;;;1.00;1.00;;;7.80;99.90;;;;;;4919276;29;20588;-87
2022/02/06 10:02:49;;;;;;;5.57;2.08;;;7.60;99.90;;;;;;4925498;29;20641;-85
2022/02/06 10:05:17;;;;;;;0.70;0.70;;;7.50;99.90;;;;;;4900832;29;20214;-84
2022/02/06 10:07:53;;;;;;;0.57;0.57;;;8.50;99.90;;;;;;4922090;29;20302;-86
2022/02/06 10:10:23;;;;;;;1.30;1.30;;;7.50;99.90;;;;;;4895548;29;20222;-84
2022/02/06 10:12:52;;;;;;;1.00;0.90;;;7.20;99.90;;;;;;4914673;29;20206;-85
2022/02/06 10:15:19;;;;;;;0.43;0.43;;;7.20;99.90;;;;;;4930342;29;20179;-85
2022/02/06 10:17:46;;;;;;;0.40;0.40;;;7.50;99.90;;;;;;4912140;29;20180;-86
2022/02/06 10:20:24;;;;;;;0.88;0.88;;;7.50;99.90;;;;;;4911148;29;20244;-85
2022/02/06 10:22:58;;;;;;;0.70;0.70;;;7.50;99.90;;;;;;4896766;29;20521;-86
2022/02/06 10:25:25;;;;;;;0.80;0.80;;;8.00;99.90;;;;;;4915014;29;20187;-84
2022/02/06 10:30:39;;;;;;;0.75;0.75;;;7.40;99.90;;;;;;4925826;29;20222;-85
2022/02/06 10:33:16;;;;;;;0.40;0.40;;;7.40;99.90;;;;;;4911580;29;20194;-84
2022/02/06 10:35:50;;;;;;;0.50;0.50;;;7.20;99.90;;;;;;4922477;29;20192;-85
2022/02/06 10:38:21;;;;;;;0.60;0.60;;;8.10;99.90;;;;;;4908655;29;20400;-85
2022/02/06 10:41:08;;;;;;;0.40;0.40;;;9.80;99.90;;;;;;4890345;29;20192;-85
2022/02/06 10:43:36;;;;;;;0.88;0.88;;;7.40;99.90;;;;;;4891856;29;20560;-85
2022/02/06 10:46:20;;;;;;;0.65;0.65;;;7.10;99.90;;;;;;4890840;29;20529;-86
2022/02/06 10:48:51;;;;;;;0.77;0.77;;;8.80;99.90;;;;;;4909228;29;20279;-85
2022/02/06 10:51:59;;;;;;;0.40;0.40;;;7.40;99.90;;;;;;4915978;29;20237;-86
2022/02/06 10:54:30;;;;;;;2.92;0.52;;;7.40;99.90;;;;;;4831660;29;20270;-86
2022/02/06 10:57:11;;;;;;;0.50;0.50;;;7.30;99.90;;;;;;4829952;29;20327;-85
2022/02/06 10:59:46;;;;;;;0.60;0.60;;;7.30;99.90;;;;;;4892409;29;20261;-86
2022/02/06 11:02:34;;;;;;;0.75;0.43;;;7.30;99.90;;;;;;4894801;29;20689;-86
2022/02/06 11:05:16;;;;;;;0.35;0.35;;;8.20;99.90;;;;;;4910374;29;20558;-86
2022/02/06 11:07:51;;;;;;;0.75;0.75;;;7.30;99.90;;;;;;4908722;29;20666;-85
2022/02/06 11:10:17;;;;;;;0.75;0.75;;;7.30;99.90;;;;;;4913766;29;20285;-83
2022/02/06 11:12:59;;;;;;;0.60;0.60;;;7.30;99.90;;;;;;4892082;29;20271;-81
2022/02/06 11:15:46;;;;;;;0.40;0.40;;;7.30;99.90;;;;;;4891616;29;20175;-84
2022/02/06 11:18:22;;;;;;;0.50;0.50;;;6.40;99.90;;;;;;4917396;29;20501;-86
2022/02/06 11:21:15;;;;;;;1.20;0.85;;;6.00;99.90;;;;;;4923685;29;20509;-83
2022/02/06 11:23:41;;;;;;;0.50;0.50;;;7.20;99.90;;;;;;4918953;29;20183;-87
2022/02/06 11:26:11;;;;;;;0.60;0.60;;;7.20;99.90;;;;;;4926553;29;20632;-87
2022/02/06 11:28:43;;;;;;;0.60;0.60;;;8.60;99.90;;;;;;4898982;29;20223;-85
2022/02/06 11:31:22;;;;;;;0.40;0.40;;;8.40;99.90;;;;;;4908289;29;20231;-86
2022/02/06 11:33:49;;;;;;;0.70;0.70;;;7.80;99.90;;;;;;4915062;29;20637;-83
2022/02/06 11:36:19;;;;;;;0.60;0.60;;;6.70;99.90;;;;;;4923796;29;20195;-85
2022/02/06 11:44:59;;;;;;;0.85;0.38;;;7.30;99.90;;;;;;4908250;29;20246;-84
2022/02/06 11:47:35;;;;;;;0.52;0.52;;;7.30;99.90;;;;;;4901116;29;20199;-86
2022/02/06 11:50:09;;;;;;;0.40;0.40;;;7.40;99.90;;;;;;4904459;29;20270;-86
2022/02/06 11:52:54;;;;;;;0.55;0.55;;;7.30;99.90;;;;;;4927115;29;20514;-85
2022/02/06 11:55:49;;;;;;;0.85;0.85;;;7.10;99.90;;;;;;4930446;29;20191;-86
2022/02/06 11:58:32;;;;;;;0.30;0.30;;;7.30;99.90;;;;;;4893261;29;20274;-85
2022/02/06 12:01:10;;;;;;;0.45;0.45;;;7.30;99.90;;;;;;4920193;29;20577;-85
2022/02/06 12:03:53;;;;;;;0.45;0.45;;;7.20;99.90;;;;;;4926326;29;20316;-86
2022/02/06 12:06:21;;;;;;;0.50;0.50;;;7.30;99.90;;;;;;4911204;29;20619;-85
2022/02/06 12:08:58;;;;;;;0.38;0.38;;;7.20;99.90;;;;;;4893897;29;20443;-85
2022/02/06 12:11:25;;;;;;;0.80;0.80;;;6.80;99.90;;;;;;4925897;29;20496;-84
2022/02/06 12:14:11;;;;;;;0.40;0.40;;;8.90;99.90;;;;;;4930140;29;20183;-84
2022/02/06 12:16:51;;;;;;;0.60;0.60;;;7.30;99.90;;;;;;4895353;29;20192;-85
2022/02/06 12:19:26;;;;;;;0.60;0.60;;;7.50;99.90;;;;;;4900267;29;20187;-84
2022/02/06 12:21:52;;;;;;;0.40;0.40;;;7.40;99.90;;;;;;4914290;29;20214;-85
2022/02/06 12:24:42;;;;;;;0.60;0.60;;;10.10;99.90;;;;;;4927376;29;20435;-87
2022/02/06 12:27:27;;;;;;;1.77;0.40;;;7.30;99.90;;;;;;4915104;29;20176;-85
2022/02/06 12:30:01;;;;;;;0.90;0.90;;;7.30;99.90;;;;;;4914947;29;20285;-86
2022/02/06 12:32:32;;;;;;;0.30;0.30;;;8.80;99.90;;;;;;4914403;29;20855;-85
2022/02/06 12:37:43;;;;;;;0.30;0.30;;;7.40;99.90;;;;;;4911892;29;20274;-86
2022/02/06 12:40:21;;;;;;;0.77;0.52;;;9.10;99.90;;;;;;4927481;29;20199;-83
2022/02/06 12:42:50;;;;;;;0.68;0.68;;;7.50;99.90;;;;;;4920321;29;20450;-83
2022/02/06 12:45:19;;;;;;;0.63;0.63;;;8.70;99.90;;;;;;4925087;29;20226;-85
2022/02/06 12:47:47;;;;;;;0.45;0.45;;;7.60;99.90;;;;;;4931315;29;20689;-85
2022/02/06 12:50:34;;;;;;;1.13;0.95;;;7.50;99.90;;;;;;4932790;29;20219;-86
2022/02/06 12:53:01;;;;;;;0.60;0.60;;;7.10;99.90;;;;;;4904912;29;20894;-84
2022/02/06 12:55:29;;;;;;;1.95;0.50;;;7.70;99.90;;;;;;4938730;29;20205;-85
2022/02/06 12:57:56;;;;;;;0.40;0.40;;;7.80;99.90;;;;;;4943063;29;20199;-84
2022/02/06 13:00:29;;;;;;;0.68;0.68;;;7.70;99.90;;;;;;4933533;29;20465;-86
2022/02/06 13:03:40;;;;;;;2.33;2.15;;;7.80;99.90;;;;;;4908844;29;20196;-87
2022/02/06 13:06:13;;;;;;;1.05;1.05;;;8.00;99.90;;;;;;4913239;29;20203;-85
2022/02/06 13:08:41;;;;;;;0.60;0.60;;;7.90;99.90;;;;;;4943702;29;20260;-86
2022/02/06 13:11:14;;;;;;;0.80;0.80;;;8.00;99.90;;;;;;4934670;29;20223;-86
2022/02/06 13:14:00;;;;;;;0.50;0.50;;;8.00;99.90;;;;;;4935502;29;20190;-86
2022/02/06 13:19:27;;;;;;;0.63;0.63;;;7.80;99.90;;;;;;4939009;29;20223;-87
2022/02/06 13:30:01;;;;;;;0.50;0.50;;;7.50;99.90;;;;;;4919239;29;20311;-87
2022/02/06 13:32:41;;;;;;;0.60;0.40;;;7.40;99.90;;;;;;4921629;29;20427;-86
2022/02/06 13:35:58;;;;;;;2.70;2.50;;;7.30;99.90;;;;;;4902374;29;20365;-86
2022/02/06 13:38:10;;;;;;;0.82;0.60;;;7.30;99.90;;;;;;4912019;29;20214;-88
2022/02/06 13:40:49;;;;;;;1.05;0.45;;;7.10;99.90;;;;;;4922809;29;20179;-86
2022/02/06 13:43:19;;;;;;;0.38;0.38;;;7.10;99.90;;;;;;4912224;29;20188;-86
2022/02/06 13:45:46;;;;;;;0.70;0.70;;;6.50;99.90;;;;;;4916678;29;20198;-85
2022/02/06 13:48:16;;;;;;;0.40;0.40;;;7.20;99.90;;;;;;4911327;29;20426;-81
2022/02/06 13:50:50;;;;;;;0.82;0.65;;;7.00;99.90;;;;;;4930022;29;20235;-87
2022/02/06 13:53:18;;;;;;;0.70;0.70;;;6.40;99.90;;;;;;4914965;29;20192;-87
2022/02/06 13:55:48;;;;;;;0.40;0.40;;;8.50;99.90;;;;;;4933593;29;20188;-88
2022/02/06 13:58:21;;;;;;;0.57;0.57;;;7.10;99.90;;;;;;4910618;29;20286;-87
2022/02/06 14:01:06;;;;;;;1.73;1.30;;;9.20;99.90;;;;;;4934478;29;20192;-86
2022/02/06 14:03:45;;;;;;;1.73;0.87;;;7.10;99.90;;;;;;4253447;29;10000666;-88
2022/02/06 14:06:13;;;;;;;0.40;0.40;;;6.90;99.90;;;;;;4915007;29;20205;-87
2022/02/06 14:08:55;;;;;;;0.50;0.50;;;6.30;99.90;;;;;;4906623;29;20191;-87
2022/02/06 14:11:27;;;;;;;0.85;0.60;;;8.60;99.90;;;;;;4903098;29;20226;-87
2022/02/06 14:14:13;;;;;;;0.80;0.68;;;6.90;99.90;;;;;;4903862;29;20195;-88
2022/02/06 14:16:47;;;;;;;0.68;0.68;;;8.20;99.90;;;;;;4925316;29;20648;-87
2022/02/06 14:19:15;;;;;;;0.50;0.50;;;6.90;99.90;;;;;;4922460;29;20199;-84
2022/02/06 14:21:47;;;;;;;0.70;0.70;;;6.90;99.90;;;;;;4911132;29;20538;-85
2022/02/06 14:24:13;;;;;;;0.93;0.93;;;6.60;99.90;;;;;;4919445;29;20272;-88
2022/02/06 14:27:00;;;;;;;5.30;4.90;;;8.90;99.90;;;;;;4921476;29;20262;-88
2022/02/06 14:29:26;;;;;;;2.60;2.50;;;6.60;99.90;;;;;;4903578;29;20816;-87
2022/02/06 14:31:51;;;;;;;1.70;1.70;;;7.00;99.90;;;;;;4924788;29;20230;-85
2022/02/06 14:34:19;;;;;;;1.73;1.70;;;6.90;99.90;;;;;;4903465;29;20227;-84
2022/02/06 14:37:14;;;;;;;1.60;1.48;;;6.50;99.90;;;;;;4916370;29;20196;-86
2022/02/06 14:40:15;;;;;;;1.35;1.35;;;6.90;99.90;;;;;;4918750;29;20184;-86
2022/02/06 14:42:52;;;;;;;1.67;1.40;;;7.10;99.90;;;;;;4904643;29;20589;-87
2022/02/06 14:45:21;;;;;;;2.85;2.17;;;7.00;99.90;;;;;;4916929;29;20192;-87
2022/02/06 14:47:49;;;;;;;1.90;1.90;;;7.00;99.90;;;;;;4923949;29;20657;-87
2022/02/06 14:50:34;;;;;;;1.67;1.65;;;6.60;99.90;;;;;;4923582;29;20224;-86
2022/02/06 14:53:12;;;;;;;1.95;1.10;;;9.90;99.90;;;;;;4901974;29;20563;-86
2022/02/06 14:55:39;;;;;;;1.45;1.20;;;7.40;99.90;;;;;;4896527;29;20200;-87
2022/02/06 14:58:04;;;;;;;2.37;2.27;;;9.10;99.90;;;;;;4926977;29;20211;-84
2022/02/06 15:00:33;;;;;;;0.97;0.97;;;7.00;99.90;;;;;;4914437;29;20468;-85
2022/02/06 15:02:59;;;;;;;1.08;1.08;;;7.00;99.90;;;;;;4909044;29;20183;-86
2022/02/06 15:05:25;;;;;;;1.13;0.90;;;7.10;99.90;;;;;;5012473;23;20564;-83
2022/02/06 15:07:50;;;;;;;0.80;0.80;;;6.90;99.90;;;;;;4940399;29;20182;-83
2022/02/06 15:10:16;;;;;;;2.80;1.17;;;7.00;99.90;;;;;;4934153;29;20292;-83
2022/02/06 15:12:42;;;;;;;1.63;1.50;;;8.30;99.90;;;;;;4935211;28;20213;-85
2022/02/06 15:15:09;;;;;;;0.63;0.50;;;6.90;99.90;;;;;;4923051;29;20195;-84
2022/02/06 15:17:35;;;;;;;0.98;0.98;;;6.90;99.90;;;;;;4942551;29;20683;-83
2022/02/06 15:20:00;;;;;;;0.60;0.60;;;8.40;99.90;;;;;;4931863;28;20203;-83
2022/02/06 15:22:26;;;;;;;2.30;0.93;;;6.80;99.90;;;;;;4917783;29;20493;-83
2022/02/06 15:24:52;;;;;;;1.40;1.13;;;6.80;99.90;;;;;;4941585;28;20270;-80
2022/02/06 15:27:17;;;;;;;0.90;0.90;;;6.80;99.90;;;;;;4915590;29;20282;-84
2022/02/06 15:29:43;;;;;;;1.13;0.70;;;6.70;99.90;;;;;;4917183;28;20911;-83
2022/02/06 15:32:09;;;;;;;0.97;0.97;;;6.70;99.90;;;;;;4917688;28;20177;-83
2022/02/06 15:34:35;;;;;;;3.10;3.00;;;6.70;99.90;;;;;;4933643;28;20201;-85
2022/02/06 15:37:03;;;;;;;7.80;7.10;;;6.80;99.90;;;;;;4934972;28;20542;-84
2022/02/06 15:39:37;;;;;;;2.30;1.00;;;6.80;99.90;;;;;;4917163;29;20219;-82
2022/02/06 15:42:08;;;;;;;1.67;0.77;;;7.60;99.90;;;;;;4918788;29;20544;-84
2022/02/06 15:44:34;;;;;;;2.58;0.75;;;6.80;99.90;;;;;;4938304;28;20200;-84
2022/02/06 15:47:00;;;;;;;0.60;0.60;;;6.60;99.90;;;;;;4935314;28;20174;-85
2022/02/06 15:49:26;;;;;;;3.90;0.80;;;6.50;99.90;;;;;;4935425;28;20490;-84
2022/02/06 15:51:53;;;;;;;2.40;1.00;;;7.40;99.90;;;;;;4920287;29;20286;-83
2022/02/06 15:54:19;;;;;;;0.70;0.70;;;7.50;99.90;;;;;;4933391;28;20270;-84
2022/02/06 15:56:45;;;;;;;6.10;0.90;;;6.80;99.90;;;;;;4934147;29;20194;-84